sensor_id;sensor_type;location;lat;lon;timestamp;temperature;humidity
75164;HTU21D;63746;45.402;37.922;2024-02-16T00:01:21;4.03;74.89
75164;HTU21D;63746;45.402;37.922;2024-02-16T00:03:46;4.02;74.86
75164;HTU21D;63746;45.402;37.922;2024-02-16T00:06:13;4.01;74.84
75164;HTU21D;63746;45.402;37.922;2024-02-16T00:08:39;4.00;75.05
75164;HTU21D;63746;45.402;37.922;2024-02-16T00:11:05;3.99;74.99
75164;HTU21D;63746;45.402;37.922;2024-02-16T00:13:31;4.00;75.04
75164;HTU21D;63746;45.402;37.922;2024-02-16T00:15:58;3.99;75.01
75164;HTU21D;63746;45.402;37.922;2024-02-16T00:18:24;3.98;74.96
75164;HTU21D;63746;45.402;37.922;2024-02-16T00:20:50;3.98;74.98
75164;HTU21D;63746;45.402;37.922;2024-02-16T00:23:16;3.95;74.93
75164;HTU21D;63746;45.402;37.922;2024-02-16T00:25:44;3.94;74.99
75164;HTU21D;63746;45.402;37.922;2024-02-16T00:28:11;3.93;75.01
75164;HTU21D;63746;45.402;37.922;2024-02-16T00:30:37;3.94;75.02
75164;HTU21D;63746;45.402;37.922;2024-02-16T00:33:04;3.94;75.02
75164;HTU21D;63746;45.402;37.922;2024-02-16T00:35:30;3.93;74.99
75164;HTU21D;63746;45.402;37.922;2024-02-16T00:37:59;3.93;75.01
75164;HTU21D;63746;45.402;37.922;2024-02-16T00:40:26;3.93;74.99
75164;HTU21D;63746;45.402;37.922;2024-02-16T00:42:55;3.90;75.04
75164;HTU21D;63746;45.402;37.922;2024-02-16T00:45:21;3.90;75.03
75164;HTU21D;63746;45.402;37.922;2024-02-16T00:47:47;3.89;75.03
75164;HTU21D;63746;45.402;37.922;2024-02-16T00:50:14;3.88;75.04
75164;HTU21D;63746;45.402;37.922;2024-02-16T00:52:41;3.87;75.01
75164;HTU21D;63746;45.402;37.922;2024-02-16T00:55:08;3.88;75.05
75164;HTU21D;63746;45.402;37.922;2024-02-16T00:57:34;3.87;75.05
75164;HTU21D;63746;45.402;37.922;2024-02-16T01:00:00;3.87;75.04
75164;HTU21D;63746;45.402;37.922;2024-02-16T01:02:26;3.86;74.94
75164;HTU21D;63746;45.402;37.922;2024-02-16T01:04:52;3.84;74.99
75164;HTU21D;63746;45.402;37.922;2024-02-16T01:07:18;3.84;74.99
75164;HTU21D;63746;45.402;37.922;2024-02-16T01:09:44;3.82;74.98
75164;HTU21D;63746;45.402;37.922;2024-02-16T01:12:10;3.82;75.00
75164;HTU21D;63746;45.402;37.922;2024-02-16T01:14:37;3.80;75.08
75164;HTU21D;63746;45.402;37.922;2024-02-16T01:17:02;3.82;75.15
75164;HTU21D;63746;45.402;37.922;2024-02-16T01:19:29;3.82;75.12
75164;HTU21D;63746;45.402;37.922;2024-02-16T01:21:55;3.83;75.01
75164;HTU21D;63746;45.402;37.922;2024-02-16T01:24:24;3.80;74.98
75164;HTU21D;63746;45.402;37.922;2024-02-16T01:26:50;3.80;74.97
75164;HTU21D;63746;45.402;37.922;2024-02-16T01:29:16;3.79;74.94
75164;HTU21D;63746;45.402;37.922;2024-02-16T01:31:42;3.78;74.92
75164;HTU21D;63746;45.402;37.922;2024-02-16T01:34:08;3.78;75.00
75164;HTU21D;63746;45.402;37.922;2024-02-16T01:36:34;3.78;74.99
75164;HTU21D;63746;45.402;37.922;2024-02-16T01:39:00;3.79;75.12
75164;HTU21D;63746;45.402;37.922;2024-02-16T01:41:26;3.78;75.12
75164;HTU21D;63746;45.402;37.922;2024-02-16T01:43:52;3.80;75.10
75164;HTU21D;63746;45.402;37.922;2024-02-16T01:46:20;3.79;75.18
75164;HTU21D;63746;45.402;37.922;2024-02-16T01:48:48;3.79;75.15
75164;HTU21D;63746;45.402;37.922;2024-02-16T01:51:16;3.80;75.22
75164;HTU21D;63746;45.402;37.922;2024-02-16T01:53:42;3.82;75.15
75164;HTU21D;63746;45.402;37.922;2024-02-16T01:56:08;3.83;75.12
75164;HTU21D;63746;45.402;37.922;2024-02-16T01:58:34;3.83;75.12
75164;HTU21D;63746;45.402;37.922;2024-02-16T02:01:00;3.83;75.08
75164;HTU21D;63746;45.402;37.922;2024-02-16T02:03:26;3.84;75.00
75164;HTU21D;63746;45.402;37.922;2024-02-16T02:05:52;3.83;75.12
75164;HTU21D;63746;45.402;37.922;2024-02-16T02:08:20;3.85;75.06
75164;HTU21D;63746;45.402;37.922;2024-02-16T02:10:46;3.84;75.09
75164;HTU21D;63746;45.402;37.922;2024-02-16T02:13:12;3.85;75.09
75164;HTU21D;63746;45.402;37.922;2024-02-16T02:15:38;3.85;75.12
75164;HTU21D;63746;45.402;37.922;2024-02-16T02:18:04;3.86;75.09
75164;HTU21D;63746;45.402;37.922;2024-02-16T02:20:30;3.86;75.14
75164;HTU21D;63746;45.402;37.922;2024-02-16T02:22:56;3.86;75.05
75164;HTU21D;63746;45.402;37.922;2024-02-16T02:25:22;3.87;75.09
75164;HTU21D;63746;45.402;37.922;2024-02-16T02:27:49;3.88;75.09
75164;HTU21D;63746;45.402;37.922;2024-02-16T02:30:14;3.88;75.01
75164;HTU21D;63746;45.402;37.922;2024-02-16T02:32:42;3.88;75.02
75164;HTU21D;63746;45.402;37.922;2024-02-16T02:35:08;3.90;74.96
75164;HTU21D;63746;45.402;37.922;2024-02-16T02:37:34;3.89;74.94
75164;HTU21D;63746;45.402;37.922;2024-02-16T02:40:00;3.90;74.92
75164;HTU21D;63746;45.402;37.922;2024-02-16T02:42:26;3.91;74.90
75164;HTU21D;63746;45.402;37.922;2024-02-16T02:44:53;3.91;74.92
75164;HTU21D;63746;45.402;37.922;2024-02-16T02:47:19;3.92;74.99
75164;HTU21D;63746;45.402;37.922;2024-02-16T02:49:45;3.93;74.92
75164;HTU21D;63746;45.402;37.922;2024-02-16T02:52:11;3.93;74.92
75164;HTU21D;63746;45.402;37.922;2024-02-16T02:54:37;3.95;74.97
75164;HTU21D;63746;45.402;37.922;2024-02-16T02:57:03;3.97;74.97
75164;HTU21D;63746;45.402;37.922;2024-02-16T02:59:29;3.97;74.90
75164;HTU21D;63746;45.402;37.922;2024-02-16T03:01:55;3.98;74.82
75164;HTU21D;63746;45.402;37.922;2024-02-16T03:04:21;3.99;74.80
75164;HTU21D;63746;45.402;37.922;2024-02-16T03:06:47;3.99;74.74
75164;HTU21D;63746;45.402;37.922;2024-02-16T03:09:13;4.00;74.69
75164;HTU21D;63746;45.402;37.922;2024-02-16T03:11:39;4.02;74.62
75164;HTU21D;63746;45.402;37.922;2024-02-16T03:14:05;4.02;74.58
75164;HTU21D;63746;45.402;37.922;2024-02-16T03:16:32;4.01;74.46
75164;HTU21D;63746;45.402;37.922;2024-02-16T03:18:58;4.01;74.38
75164;HTU21D;63746;45.402;37.922;2024-02-16T03:21:25;4.01;74.35
75164;HTU21D;63746;45.402;37.922;2024-02-16T03:23:51;4.03;74.35
75164;HTU21D;63746;45.402;37.922;2024-02-16T03:26:19;4.00;74.34
75164;HTU21D;63746;45.402;37.922;2024-02-16T03:28:46;4.03;74.29
75164;HTU21D;63746;45.402;37.922;2024-02-16T03:31:17;4.02;74.31
75164;HTU21D;63746;45.402;37.922;2024-02-16T03:33:43;4.03;74.20
75164;HTU21D;63746;45.402;37.922;2024-02-16T03:36:09;4.03;74.15
75164;HTU21D;63746;45.402;37.922;2024-02-16T03:38:35;4.02;74.18
75164;HTU21D;63746;45.402;37.922;2024-02-16T03:41:01;4.03;74.22
75164;HTU21D;63746;45.402;37.922;2024-02-16T03:43:27;4.03;74.09
75164;HTU21D;63746;45.402;37.922;2024-02-16T03:45:53;4.03;74.09
75164;HTU21D;63746;45.402;37.922;2024-02-16T03:48:19;4.02;73.98
75164;HTU21D;63746;45.402;37.922;2024-02-16T03:50:45;4.02;73.94
75164;HTU21D;63746;45.402;37.922;2024-02-16T03:53:11;4.02;73.93
75164;HTU21D;63746;45.402;37.922;2024-02-16T03:55:37;4.03;74.05
75164;HTU21D;63746;45.402;37.922;2024-02-16T03:58:04;4.02;74.09
75164;HTU21D;63746;45.402;37.922;2024-02-16T04:00:30;4.03;74.02
75164;HTU21D;63746;45.402;37.922;2024-02-16T04:02:58;4.03;73.96
75164;HTU21D;63746;45.402;37.922;2024-02-16T04:05:24;4.03;73.95
75164;HTU21D;63746;45.402;37.922;2024-02-16T04:07:56;4.02;73.90
75164;HTU21D;63746;45.402;37.922;2024-02-16T04:10:27;4.03;73.96
75164;HTU21D;63746;45.402;37.922;2024-02-16T04:12:56;4.01;73.94
75164;HTU21D;63746;45.402;37.922;2024-02-16T04:15:22;4.01;73.94
75164;HTU21D;63746;45.402;37.922;2024-02-16T04:17:48;4.01;73.99
75164;HTU21D;63746;45.402;37.922;2024-02-16T04:20:15;4.02;74.03
75164;HTU21D;63746;45.402;37.922;2024-02-16T04:22:42;4.01;74.09
75164;HTU21D;63746;45.402;37.922;2024-02-16T04:25:08;4.02;74.05
75164;HTU21D;63746;45.402;37.922;2024-02-16T04:27:35;4.04;74.06
75164;HTU21D;63746;45.402;37.922;2024-02-16T04:30:05;4.02;74.07
75164;HTU21D;63746;45.402;37.922;2024-02-16T04:32:32;4.04;74.15
75164;HTU21D;63746;45.402;37.922;2024-02-16T04:34:58;4.03;74.12
75164;HTU21D;63746;45.402;37.922;2024-02-16T04:37:27;4.05;74.08
75164;HTU21D;63746;45.402;37.922;2024-02-16T04:39:53;4.06;74.07
75164;HTU21D;63746;45.402;37.922;2024-02-16T04:42:19;4.06;74.12
75164;HTU21D;63746;45.402;37.922;2024-02-16T04:44:45;4.06;74.09
75164;HTU21D;63746;45.402;37.922;2024-02-16T04:47:11;4.06;74.12
75164;HTU21D;63746;45.402;37.922;2024-02-16T04:49:37;4.08;74.06
75164;HTU21D;63746;45.402;37.922;2024-02-16T04:52:04;4.06;74.13
75164;HTU21D;63746;45.402;37.922;2024-02-16T04:54:30;4.09;74.15
75164;HTU21D;63746;45.402;37.922;2024-02-16T04:56:56;4.12;74.13
75164;HTU21D;63746;45.402;37.922;2024-02-16T04:59:22;4.12;74.15
75164;HTU21D;63746;45.402;37.922;2024-02-16T05:01:48;4.12;74.09
75164;HTU21D;63746;45.402;37.922;2024-02-16T05:04:14;4.13;73.98
75164;HTU21D;63746;45.402;37.922;2024-02-16T05:06:43;4.13;73.91
75164;HTU21D;63746;45.402;37.922;2024-02-16T05:09:11;4.13;73.84
75164;HTU21D;63746;45.402;37.922;2024-02-16T05:11:37;4.10;73.78
75164;HTU21D;63746;45.402;37.922;2024-02-16T05:14:03;4.07;73.87
75164;HTU21D;63746;45.402;37.922;2024-02-16T05:16:29;4.07;73.86
75164;HTU21D;63746;45.402;37.922;2024-02-16T05:18:57;4.09;73.90
75164;HTU21D;63746;45.402;37.922;2024-02-16T05:21:23;4.08;73.78
75164;HTU21D;63746;45.402;37.922;2024-02-16T05:23:49;4.08;73.73
75164;HTU21D;63746;45.402;37.922;2024-02-16T05:26:15;4.10;73.77
75164;HTU21D;63746;45.402;37.922;2024-02-16T05:28:41;4.09;73.71
75164;HTU21D;63746;45.402;37.922;2024-02-16T05:31:14;4.09;73.76
75164;HTU21D;63746;45.402;37.922;2024-02-16T05:33:46;4.12;73.79
75164;HTU21D;63746;45.402;37.922;2024-02-16T05:36:15;4.12;73.85
75164;HTU21D;63746;45.402;37.922;2024-02-16T05:38:41;4.13;73.75
75164;HTU21D;63746;45.402;37.922;2024-02-16T05:41:09;4.10;73.69
75164;HTU21D;63746;45.402;37.922;2024-02-16T05:43:37;4.12;73.69
75164;HTU21D;63746;45.402;37.922;2024-02-16T05:46:04;4.12;73.72
75164;HTU21D;63746;45.402;37.922;2024-02-16T05:48:33;4.12;73.46
75164;HTU21D;63746;45.402;37.922;2024-02-16T05:51:03;4.08;73.42
75164;HTU21D;63746;45.402;37.922;2024-02-16T05:53:34;4.10;73.61
75164;HTU21D;63746;45.402;37.922;2024-02-16T05:56:01;4.10;73.79
75164;HTU21D;63746;45.402;37.922;2024-02-16T05:58:27;4.12;73.73
75164;HTU21D;63746;45.402;37.922;2024-02-16T06:00:54;4.12;73.52
75164;HTU21D;63746;45.402;37.922;2024-02-16T06:03:21;4.10;73.48
75164;HTU21D;63746;45.402;37.922;2024-02-16T06:05:47;4.09;73.54
75164;HTU21D;63746;45.402;37.922;2024-02-16T06:08:14;4.09;73.50
75164;HTU21D;63746;45.402;37.922;2024-02-16T06:10:41;4.10;73.59
75164;HTU21D;63746;45.402;37.922;2024-02-16T06:13:17;4.10;73.67
75164;HTU21D;63746;45.402;37.922;2024-02-16T06:15:43;4.09;73.60
75164;HTU21D;63746;45.402;37.922;2024-02-16T06:18:10;4.09;73.60
75164;HTU21D;63746;45.402;37.922;2024-02-16T06:20:36;4.09;73.64
75164;HTU21D;63746;45.402;37.922;2024-02-16T06:23:02;4.14;73.98
75164;HTU21D;63746;45.402;37.922;2024-02-16T06:25:28;4.15;73.89
75164;HTU21D;63746;45.402;37.922;2024-02-16T06:27:54;4.16;73.67
75164;HTU21D;63746;45.402;37.922;2024-02-16T06:30:20;4.15;73.70
75164;HTU21D;63746;45.402;37.922;2024-02-16T06:32:46;4.16;73.62
75164;HTU21D;63746;45.402;37.922;2024-02-16T06:35:13;4.16;73.49
75164;HTU21D;63746;45.402;37.922;2024-02-16T06:37:40;4.15;73.44
75164;HTU21D;63746;45.402;37.922;2024-02-16T06:40:06;4.14;73.43
75164;HTU21D;63746;45.402;37.922;2024-02-16T06:42:36;4.14;73.50
75164;HTU21D;63746;45.402;37.922;2024-02-16T06:45:03;4.15;73.58
75164;HTU21D;63746;45.402;37.922;2024-02-16T06:47:33;4.14;73.45
75164;HTU21D;63746;45.402;37.922;2024-02-16T06:49:59;4.17;73.55
75164;HTU21D;63746;45.402;37.922;2024-02-16T06:52:25;4.15;73.47
75164;HTU21D;63746;45.402;37.922;2024-02-16T06:54:51;4.14;73.46
75164;HTU21D;63746;45.402;37.922;2024-02-16T06:57:18;4.13;73.28
75164;HTU21D;63746;45.402;37.922;2024-02-16T06:59:46;4.14;73.37
75164;HTU21D;63746;45.402;37.922;2024-02-16T07:02:12;4.14;73.38
75164;HTU21D;63746;45.402;37.922;2024-02-16T07:04:41;4.14;73.35
75164;HTU21D;63746;45.402;37.922;2024-02-16T07:09:43;4.12;73.17
75164;HTU21D;63746;45.402;37.922;2024-02-16T07:12:10;4.12;73.26
75164;HTU21D;63746;45.402;37.922;2024-02-16T07:14:38;4.13;73.34
75164;HTU21D;63746;45.402;37.922;2024-02-16T07:17:04;4.13;73.46
75164;HTU21D;63746;45.402;37.922;2024-02-16T07:19:33;4.13;73.12
75164;HTU21D;63746;45.402;37.922;2024-02-16T07:21:59;4.15;73.27
75164;HTU21D;63746;45.402;37.922;2024-02-16T07:24:25;4.15;73.28
75164;HTU21D;63746;45.402;37.922;2024-02-16T07:26:53;4.14;73.13
75164;HTU21D;63746;45.402;37.922;2024-02-16T07:29:19;4.16;73.25
75164;HTU21D;63746;45.402;37.922;2024-02-16T07:31:45;4.17;72.96
75164;HTU21D;63746;45.402;37.922;2024-02-16T07:34:11;4.18;73.14
75164;HTU21D;63746;45.402;37.922;2024-02-16T07:36:37;4.17;73.23
75164;HTU21D;63746;45.402;37.922;2024-02-16T07:39:03;4.19;73.30
75164;HTU21D;63746;45.402;37.922;2024-02-16T07:41:30;4.18;73.07
75164;HTU21D;63746;45.402;37.922;2024-02-16T07:43:56;4.18;73.28
75164;HTU21D;63746;45.402;37.922;2024-02-16T07:46:22;4.21;73.44
75164;HTU21D;63746;45.402;37.922;2024-02-16T07:48:48;4.23;73.15
75164;HTU21D;63746;45.402;37.922;2024-02-16T07:51:14;4.26;73.01
75164;HTU21D;63746;45.402;37.922;2024-02-16T07:53:40;4.27;73.28
75164;HTU21D;63746;45.402;37.922;2024-02-16T07:56:07;4.28;73.15
75164;HTU21D;63746;45.402;37.922;2024-02-16T07:58:33;4.29;73.04
75164;HTU21D;63746;45.402;37.922;2024-02-16T08:00:59;4.30;72.99
75164;HTU21D;63746;45.402;37.922;2024-02-16T08:16:47;5.39;72.11
75164;HTU21D;63746;45.402;37.922;2024-02-16T08:19:13;5.32;71.99
75164;HTU21D;63746;45.402;37.922;2024-02-16T08:21:39;5.22;71.67
75164;HTU21D;63746;45.402;37.922;2024-02-16T08:24:06;5.11;72.00
75164;HTU21D;63746;45.402;37.922;2024-02-16T08:26:32;5.04;72.34
75164;HTU21D;63746;45.402;37.922;2024-02-16T08:28:58;4.95;72.44
75164;HTU21D;63746;45.402;37.922;2024-02-16T08:31:25;4.89;72.41
75164;HTU21D;63746;45.402;37.922;2024-02-16T08:33:51;4.80;72.56
75164;HTU21D;63746;45.402;37.922;2024-02-16T08:36:17;4.76;72.85
75164;HTU21D;63746;45.402;37.922;2024-02-16T08:38:43;4.75;72.74
75164;HTU21D;63746;45.402;37.922;2024-02-16T08:41:09;4.72;72.79
75164;HTU21D;63746;45.402;37.922;2024-02-16T08:43:35;4.69;72.87
75164;HTU21D;63746;45.402;37.922;2024-02-16T08:46:01;4.69;73.04
75164;HTU21D;63746;45.402;37.922;2024-02-16T08:48:27;4.71;73.03
75164;HTU21D;63746;45.402;37.922;2024-02-16T08:50:53;4.71;72.80
75164;HTU21D;63746;45.402;37.922;2024-02-16T08:53:19;4.71;72.82
75164;HTU21D;63746;45.402;37.922;2024-02-16T08:55:45;4.71;73.04
75164;HTU21D;63746;45.402;37.922;2024-02-16T08:58:11;4.72;73.00
75164;HTU21D;63746;45.402;37.922;2024-02-16T09:00:38;4.73;72.91
75164;HTU21D;63746;45.402;37.922;2024-02-16T09:03:04;4.74;73.05
75164;HTU21D;63746;45.402;37.922;2024-02-16T09:05:32;4.75;72.69
75164;HTU21D;63746;45.402;37.922;2024-02-16T09:07:58;4.75;73.03
75164;HTU21D;63746;45.402;37.922;2024-02-16T09:10:24;4.78;72.92
75164;HTU21D;63746;45.402;37.922;2024-02-16T09:12:50;4.83;73.04
75164;HTU21D;63746;45.402;37.922;2024-02-16T09:15:17;4.86;72.68
75164;HTU21D;63746;45.402;37.922;2024-02-16T09:17:43;4.88;72.62
75164;HTU21D;63746;45.402;37.922;2024-02-16T09:20:10;4.89;72.77
75164;HTU21D;63746;45.402;37.922;2024-02-16T09:22:38;4.91;72.37
75164;HTU21D;63746;45.402;37.922;2024-02-16T09:25:05;4.92;72.48
75164;HTU21D;63746;45.402;37.922;2024-02-16T09:27:31;4.94;72.38
75164;HTU21D;63746;45.402;37.922;2024-02-16T09:29:57;4.96;72.57
75164;HTU21D;63746;45.402;37.922;2024-02-16T09:32:23;5.00;72.36
75164;HTU21D;63746;45.402;37.922;2024-02-16T09:34:49;5.02;72.32
75164;HTU21D;63746;45.402;37.922;2024-02-16T09:37:16;5.06;72.63
75164;HTU21D;63746;45.402;37.922;2024-02-16T09:39:43;5.09;72.52
75164;HTU21D;63746;45.402;37.922;2024-02-16T09:42:09;5.10;72.16
75164;HTU21D;63746;45.402;37.922;2024-02-16T09:44:35;5.13;71.90
75164;HTU21D;63746;45.402;37.922;2024-02-16T09:47:03;5.13;71.88
75164;HTU21D;63746;45.402;37.922;2024-02-16T09:49:30;5.16;72.20
75164;HTU21D;63746;45.402;37.922;2024-02-16T09:52:00;5.17;72.24
75164;HTU21D;63746;45.402;37.922;2024-02-16T09:54:32;5.19;71.66
75164;HTU21D;63746;45.402;37.922;2024-02-16T09:57:00;5.18;71.50
75164;HTU21D;63746;45.402;37.922;2024-02-16T09:59:26;5.19;71.48
75164;HTU21D;63746;45.402;37.922;2024-02-16T10:02:10;5.19;71.94
75164;HTU21D;63746;45.402;37.922;2024-02-16T10:04:36;5.21;71.80
75164;HTU21D;63746;45.402;37.922;2024-02-16T10:07:02;5.23;71.80
75164;HTU21D;63746;45.402;37.922;2024-02-16T10:09:29;5.26;71.77
75164;HTU21D;63746;45.402;37.922;2024-02-16T10:11:55;5.31;71.77
75164;HTU21D;63746;45.402;37.922;2024-02-16T10:14:23;5.34;71.67
75164;HTU21D;63746;45.402;37.922;2024-02-16T10:17:04;5.36;71.74
75164;HTU21D;63746;45.402;37.922;2024-02-16T10:19:31;5.38;71.58
75164;HTU21D;63746;45.402;37.922;2024-02-16T10:22:11;5.36;71.34
75164;HTU21D;63746;45.402;37.922;2024-02-16T10:24:39;5.34;71.38
75164;HTU21D;63746;45.402;37.922;2024-02-16T10:27:06;5.33;71.74
75164;HTU21D;63746;45.402;37.922;2024-02-16T10:29:32;5.34;71.60
75164;HTU21D;63746;45.402;37.922;2024-02-16T10:31:59;5.35;71.43
75164;HTU21D;63746;45.402;37.922;2024-02-16T10:34:28;5.34;71.70
75164;HTU21D;63746;45.402;37.922;2024-02-16T10:36:55;5.33;71.01
75164;HTU21D;63746;45.402;37.922;2024-02-16T10:39:23;5.33;71.14
75164;HTU21D;63746;45.402;37.922;2024-02-16T10:41:51;5.33;71.19
75164;HTU21D;63746;45.402;37.922;2024-02-16T10:44:17;5.31;71.06
75164;HTU21D;63746;45.402;37.922;2024-02-16T10:46:44;5.30;71.62
75164;HTU21D;63746;45.402;37.922;2024-02-16T10:49:10;5.31;71.66
75164;HTU21D;63746;45.402;37.922;2024-02-16T10:51:46;5.30;71.59
75164;HTU21D;63746;45.402;37.922;2024-02-16T10:54:18;5.30;71.55
75164;HTU21D;63746;45.402;37.922;2024-02-16T10:56:47;5.28;71.12
75164;HTU21D;63746;45.402;37.922;2024-02-16T10:59:13;5.28;71.45
75164;HTU21D;63746;45.402;37.922;2024-02-16T11:01:41;5.27;71.36
75164;HTU21D;63746;45.402;37.922;2024-02-16T11:04:08;5.27;71.44
75164;HTU21D;63746;45.402;37.922;2024-02-16T11:09:44;5.19;71.32
75164;HTU21D;63746;45.402;37.922;2024-02-16T11:14:56;5.16;71.38
75164;HTU21D;63746;45.402;37.922;2024-02-16T11:17:23;5.17;71.12
75164;HTU21D;63746;45.402;37.922;2024-02-16T11:19:50;5.15;71.27
75164;HTU21D;63746;45.402;37.922;2024-02-16T11:22:20;5.18;71.32
75164;HTU21D;63746;45.402;37.922;2024-02-16T11:24:52;5.19;71.06
75164;HTU21D;63746;45.402;37.922;2024-02-16T11:27:19;5.19;71.18
75164;HTU21D;63746;45.402;37.922;2024-02-16T11:29:45;5.22;71.30
75164;HTU21D;63746;45.402;37.922;2024-02-16T11:32:12;5.25;71.63
75164;HTU21D;63746;45.402;37.922;2024-02-16T11:34:38;5.27;71.79
75164;HTU21D;63746;45.402;37.922;2024-02-16T11:37:04;5.31;71.52
75164;HTU21D;63746;45.402;37.922;2024-02-16T11:39:31;5.32;71.51
75164;HTU21D;63746;45.402;37.922;2024-02-16T11:42:02;5.34;72.00
75164;HTU21D;63746;45.402;37.922;2024-02-16T11:44:30;5.37;72.06
75164;HTU21D;63746;45.402;37.922;2024-02-16T11:46:58;5.37;71.23
75164;HTU21D;63746;45.402;37.922;2024-02-16T11:49:24;5.38;71.22
75164;HTU21D;63746;45.402;37.922;2024-02-16T11:51:50;5.39;71.37
75164;HTU21D;63746;45.402;37.922;2024-02-16T11:54:17;5.40;71.64
75164;HTU21D;63746;45.402;37.922;2024-02-16T11:56:47;5.42;71.65
75164;HTU21D;63746;45.402;37.922;2024-02-16T11:59:18;5.42;71.41
75164;HTU21D;63746;45.402;37.922;2024-02-16T12:01:57;5.41;71.64
75164;HTU21D;63746;45.402;37.922;2024-02-16T12:04:26;5.41;70.66
75164;HTU21D;63746;45.402;37.922;2024-02-16T12:07:02;5.39;71.18
75164;HTU21D;63746;45.402;37.922;2024-02-16T12:09:33;5.37;71.38
75164;HTU21D;63746;45.402;37.922;2024-02-16T12:12:01;5.40;71.30
75164;HTU21D;63746;45.402;37.922;2024-02-16T12:14:28;5.46;71.67
75164;HTU21D;63746;45.402;37.922;2024-02-16T12:16:58;5.51;71.38
75164;HTU21D;63746;45.402;37.922;2024-02-16T12:19:24;5.55;71.15
75164;HTU21D;63746;45.402;37.922;2024-02-16T12:21:57;5.59;70.01
75164;HTU21D;63746;45.402;37.922;2024-02-16T12:24:25;5.57;71.00
75164;HTU21D;63746;45.402;37.922;2024-02-16T12:26:51;5.59;71.05
75164;HTU21D;63746;45.402;37.922;2024-02-16T12:29:17;5.61;71.26
75164;HTU21D;63746;45.402;37.922;2024-02-16T12:31:46;5.61;71.06
75164;HTU21D;63746;45.402;37.922;2024-02-16T12:34:15;5.62;71.35
75164;HTU21D;63746;45.402;37.922;2024-02-16T12:36:41;5.62;71.04
75164;HTU21D;63746;45.402;37.922;2024-02-16T12:39:08;5.63;70.45
75164;HTU21D;63746;45.402;37.922;2024-02-16T12:41:42;5.60;70.36
75164;HTU21D;63746;45.402;37.922;2024-02-16T12:44:09;5.56;70.29
75164;HTU21D;63746;45.402;37.922;2024-02-16T12:46:35;5.55;70.59
75164;HTU21D;63746;45.402;37.922;2024-02-16T12:49:01;5.54;71.10
75164;HTU21D;63746;45.402;37.922;2024-02-16T12:51:27;5.53;70.57
75164;HTU21D;63746;45.402;37.922;2024-02-16T12:53:54;5.52;70.97
75164;HTU21D;63746;45.402;37.922;2024-02-16T12:56:20;5.49;70.92
75164;HTU21D;63746;45.402;37.922;2024-02-16T12:58:47;5.48;70.76
75164;HTU21D;63746;45.402;37.922;2024-02-16T13:01:13;5.45;71.32
75164;HTU21D;63746;45.402;37.922;2024-02-16T13:03:39;5.45;70.87
75164;HTU21D;63746;45.402;37.922;2024-02-16T13:06:06;5.45;70.69
75164;HTU21D;63746;45.402;37.922;2024-02-16T13:08:32;5.43;70.68
75164;HTU21D;63746;45.402;37.922;2024-02-16T13:10:58;5.41;70.65
75164;HTU21D;63746;45.402;37.922;2024-02-16T13:13:24;5.40;70.70
75164;HTU21D;63746;45.402;37.922;2024-02-16T13:15:51;5.36;70.77
75164;HTU21D;63746;45.402;37.922;2024-02-16T13:18:17;5.35;71.11
75164;HTU21D;63746;45.402;37.922;2024-02-16T13:20:43;5.32;71.00
75164;HTU21D;63746;45.402;37.922;2024-02-16T13:23:10;5.30;71.16
75164;HTU21D;63746;45.402;37.922;2024-02-16T13:25:36;5.27;71.10
75164;HTU21D;63746;45.402;37.922;2024-02-16T13:28:02;5.25;70.93
75164;HTU21D;63746;45.402;37.922;2024-02-16T13:30:28;5.22;70.90
75164;HTU21D;63746;45.402;37.922;2024-02-16T13:32:55;5.19;71.02
75164;HTU21D;63746;45.402;37.922;2024-02-16T13:35:21;5.15;71.27
75164;HTU21D;63746;45.402;37.922;2024-02-16T13:37:47;5.12;70.56
75164;HTU21D;63746;45.402;37.922;2024-02-16T13:40:14;5.10;70.53
75164;HTU21D;63746;45.402;37.922;2024-02-16T13:42:40;5.05;70.46
75164;HTU21D;63746;45.402;37.922;2024-02-16T13:45:10;5.02;71.04
75164;HTU21D;63746;45.402;37.922;2024-02-16T13:47:37;4.97;71.03
75164;HTU21D;63746;45.402;37.922;2024-02-16T13:50:08;4.94;71.05
75164;HTU21D;63746;45.402;37.922;2024-02-16T13:52:35;4.90;71.00
75164;HTU21D;63746;45.402;37.922;2024-02-16T13:55:01;4.86;70.48
75164;HTU21D;63746;45.402;37.922;2024-02-16T13:57:27;4.80;70.62
75164;HTU21D;63746;45.402;37.922;2024-02-16T13:59:53;4.77;70.94
75164;HTU21D;63746;45.402;37.922;2024-02-16T14:02:19;4.74;71.25
75164;HTU21D;63746;45.402;37.922;2024-02-16T14:04:45;4.71;70.95
75164;HTU21D;63746;45.402;37.922;2024-02-16T14:07:11;4.66;70.28
75164;HTU21D;63746;45.402;37.922;2024-02-16T14:09:38;4.62;70.55
75164;HTU21D;63746;45.402;37.922;2024-02-16T14:12:04;4.58;70.97
75164;HTU21D;63746;45.402;37.922;2024-02-16T14:14:30;4.51;70.86
75164;HTU21D;63746;45.402;37.922;2024-02-16T14:16:56;4.49;71.20
75164;HTU21D;63746;45.402;37.922;2024-02-16T14:19:24;4.46;71.33
75164;HTU21D;63746;45.402;37.922;2024-02-16T14:21:50;4.46;71.80
75164;HTU21D;63746;45.402;37.922;2024-02-16T14:27:01;4.44;71.75
75164;HTU21D;63746;45.402;37.922;2024-02-16T14:29:27;4.41;71.71
75164;HTU21D;63746;45.402;37.922;2024-02-16T14:31:54;4.38;71.75
75164;HTU21D;63746;45.402;37.922;2024-02-16T14:34:21;4.36;70.89
75164;HTU21D;63746;45.402;37.922;2024-02-16T14:36:47;4.33;71.39
75164;HTU21D;63746;45.402;37.922;2024-02-16T14:39:13;4.33;71.71
75164;HTU21D;63746;45.402;37.922;2024-02-16T14:41:41;4.30;71.96
75164;HTU21D;63746;45.402;37.922;2024-02-16T14:44:07;4.29;71.81
75164;HTU21D;63746;45.402;37.922;2024-02-16T14:46:33;4.26;71.62
75164;HTU21D;63746;45.402;37.922;2024-02-16T14:49:00;4.23;71.34
75164;HTU21D;63746;45.402;37.922;2024-02-16T14:51:26;4.20;71.44
75164;HTU21D;63746;45.402;37.922;2024-02-16T14:53:52;4.16;71.58
75164;HTU21D;63746;45.402;37.922;2024-02-16T14:56:18;4.14;71.45
75164;HTU21D;63746;45.402;37.922;2024-02-16T14:58:47;4.09;70.93
75164;HTU21D;63746;45.402;37.922;2024-02-16T15:01:13;4.06;71.64
75164;HTU21D;63746;45.402;37.922;2024-02-16T15:03:39;4.06;71.71
75164;HTU21D;63746;45.402;37.922;2024-02-16T15:06:06;4.05;71.83
75164;HTU21D;63746;45.402;37.922;2024-02-16T15:08:32;4.04;71.79
75164;HTU21D;63746;45.402;37.922;2024-02-16T15:10:58;4.00;71.77
75164;HTU21D;63746;45.402;37.922;2024-02-16T15:13:24;4.00;71.96
75164;HTU21D;63746;45.402;37.922;2024-02-16T15:15:51;3.98;71.96
75164;HTU21D;63746;45.402;37.922;2024-02-16T15:18:18;3.98;71.87
75164;HTU21D;63746;45.402;37.922;2024-02-16T15:20:44;3.98;71.69
75164;HTU21D;63746;45.402;37.922;2024-02-16T15:23:11;3.94;71.71
75164;HTU21D;63746;45.402;37.922;2024-02-16T15:25:37;3.92;71.66
75164;HTU21D;63746;45.402;37.922;2024-02-16T15:28:05;3.92;71.52
75164;HTU21D;63746;45.402;37.922;2024-02-16T15:30:31;3.90;71.79
75164;HTU21D;63746;45.402;37.922;2024-02-16T15:32:57;3.89;71.67
75164;HTU21D;63746;45.402;37.922;2024-02-16T15:35:23;3.87;71.99
75164;HTU21D;63746;45.402;37.922;2024-02-16T15:37:49;3.85;71.68